sensor_id;sensor_type;location;lat;lon;timestamp;temperature;humidity
15257;DHT22;7731;50.720;6.912;2024-03-02T00:01:16;8.40;99.90
15257;DHT22;7731;50.720;6.912;2024-03-02T00:03:46;8.50;1.00
15257;DHT22;7731;50.720;6.912;2024-03-02T00:09:09;8.60;99.90
15257;DHT22;7731;50.720;6.912;2024-03-02T00:11:41;8.60;99.90
15257;DHT22;7731;50.720;6.912;2024-03-02T00:14:11;8.70;1.00
15257;DHT22;7731;50.720;6.912;2024-03-02T00:16:42;8.70;1.00
15257;DHT22;7731;50.720;6.912;2024-03-02T00:19:13;8.70;99.90
15257;DHT22;7731;50.720;6.912;2024-03-02T00:21:43;8.70;99.90
15257;DHT22;7731;50.720;6.912;2024-03-02T00:24:21;8.70;99.90
15257;DHT22;7731;50.720;6.912;2024-03-02T00:27:04;8.70;99.90
15257;DHT22;7731;50.720;6.912;2024-03-02T00:29:40;8.70;99.90
15257;DHT22;7731;50.720;6.912;2024-03-02T00:32:16;8.60;99.90
15257;DHT22;7731;50.720;6.912;2024-03-02T00:34:47;8.70;99.90
15257;DHT22;7731;50.720;6.912;2024-03-02T00:37:17;8.60;1.00
15257;DHT22;7731;50.720;6.912;2024-03-02T00:40:00;8.60;1.00
15257;DHT22;7731;50.720;6.912;2024-03-02T00:42:31;8.50;1.00
15257;DHT22;7731;50.720;6.912;2024-03-02T00:45:07;8.40;99.90
15257;DHT22;7731;50.720;6.912;2024-03-02T00:47:38;8.30;1.00
15257;DHT22;7731;50.720;6.912;2024-03-02T00:50:09;8.30;99.90
15257;DHT22;7731;50.720;6.912;2024-03-02T00:52:52;8.20;99.90
15257;DHT22;7731;50.720;6.912;2024-03-02T00:55:31;8.20;1.00
15257;DHT22;7731;50.720;6.912;2024-03-02T00:58:11;8.10;99.90
15257;DHT22;7731;50.720;6.912;2024-03-02T01:00:41;8.10;36.20
15257;DHT22;7731;50.720;6.912;2024-03-02T01:03:12;8.20;1.00
15257;DHT22;7731;50.720;6.912;2024-03-02T01:05:43;8.20;99.90
15257;DHT22;7731;50.720;6.912;2024-03-02T01:08:16;8.20;99.90
15257;DHT22;7731;50.720;6.912;2024-03-02T01:10:49;8.10;99.90
15257;DHT22;7731;50.720;6.912;2024-03-02T01:13:20;8.10;99.90
15257;DHT22;7731;50.720;6.912;2024-03-02T01:15:54;8.10;99.90
15257;DHT22;7731;50.720;6.912;2024-03-02T01:18:24;8.00;1.00
15257;DHT22;7731;50.720;6.912;2024-03-02T01:20:57;8.00;1.00
15257;DHT22;7731;50.720;6.912;2024-03-02T01:23:28;7.90;1.00
15257;DHT22;7731;50.720;6.912;2024-03-02T01:26:01;7.90;1.00
15257;DHT22;7731;50.720;6.912;2024-03-02T01:28:32;7.80;99.90
15257;DHT22;7731;50.720;6.912;2024-03-02T01:31:03;7.80;99.90
15257;DHT22;7731;50.720;6.912;2024-03-02T01:33:36;7.80;99.90
15257;DHT22;7731;50.720;6.912;2024-03-02T01:36:06;7.70;99.90
15257;DHT22;7731;50.720;6.912;2024-03-02T01:38:45;7.70;99.90
15257;DHT22;7731;50.720;6.912;2024-03-02T01:41:18;7.70;99.90
15257;DHT22;7731;50.720;6.912;2024-03-02T01:43:48;7.70;99.90
15257;DHT22;7731;50.720;6.912;2024-03-02T01:46:19;7.80;99.90
15257;DHT22;7731;50.720;6.912;2024-03-02T01:48:49;7.80;99.90
15257;DHT22;7731;50.720;6.912;2024-03-02T01:51:22;7.90;99.90
15257;DHT22;7731;50.720;6.912;2024-03-02T01:53:52;7.90;99.90
15257;DHT22;7731;50.720;6.912;2024-03-02T01:56:25;7.90;99.90
15257;DHT22;7731;50.720;6.912;2024-03-02T01:58:56;7.90;99.90
15257;DHT22;7731;50.720;6.912;2024-03-02T02:01:26;7.90;99.90
15257;DHT22;7731;50.720;6.912;2024-03-02T02:03:57;7.90;99.90
15257;DHT22;7731;50.720;6.912;2024-03-02T02:06:28;7.90;99.90
15257;DHT22;7731;50.720;6.912;2024-03-02T02:08:58;8.00;91.60
15257;DHT22;7731;50.720;6.912;2024-03-02T02:11:35;7.90;99.90
15257;DHT22;7731;50.720;6.912;2024-03-02T02:14:06;7.90;99.90
15257;DHT22;7731;50.720;6.912;2024-03-02T02:16:37;7.80;99.90
15257;DHT22;7731;50.720;6.912;2024-03-02T02:19:07;7.80;99.90
15257;DHT22;7731;50.720;6.912;2024-03-02T02:21:42;7.70;99.90
15257;DHT22;7731;50.720;6.912;2024-03-02T02:24:12;7.70;99.90
15257;DHT22;7731;50.720;6.912;2024-03-02T02:26:43;7.70;99.90
15257;DHT22;7731;50.720;6.912;2024-03-02T02:29:13;7.70;99.90
15257;DHT22;7731;50.720;6.912;2024-03-02T02:31:44;7.70;99.90
15257;DHT22;7731;50.720;6.912;2024-03-02T02:34:17;7.70;99.90
15257;DHT22;7731;50.720;6.912;2024-03-02T02:36:50;7.80;99.90
15257;DHT22;7731;50.720;6.912;2024-03-02T02:39:24;7.80;99.90
15257;DHT22;7731;50.720;6.912;2024-03-02T02:41:55;7.80;99.90
15257;DHT22;7731;50.720;6.912;2024-03-02T02:44:29;7.80;99.90
15257;DHT22;7731;50.720;6.912;2024-03-02T02:47:00;7.80;99.90
15257;DHT22;7731;50.720;6.912;2024-03-02T02:49:31;7.80;99.90
15257;DHT22;7731;50.720;6.912;2024-03-02T02:52:10;7.80;99.90
15257;DHT22;7731;50.720;6.912;2024-03-02T02:54:40;7.80;99.90
15257;DHT22;7731;50.720;6.912;2024-03-02T02:57:11;7.80;99.90
15257;DHT22;7731;50.720;6.912;2024-03-02T02:59:43;7.80;99.90
15257;DHT22;7731;50.720;6.912;2024-03-02T03:02:13;7.80;99.90
15257;DHT22;7731;50.720;6.912;2024-03-02T03:04:44;7.80;99.90
15257;DHT22;7731;50.720;6.912;2024-03-02T03:07:17;7.80;99.90
15257;DHT22;7731;50.720;6.912;2024-03-02T03:09:52;7.80;99.90
15257;DHT22;7731;50.720;6.912;2024-03-02T03:12:25;7.80;99.90
15257;DHT22;7731;50.720;6.912;2024-03-02T03:14:56;7.80;99.90
15257;DHT22;7731;50.720;6.912;2024-03-02T03:17:29;7.70;99.90
15257;DHT22;7731;50.720;6.912;2024-03-02T03:20:03;7.60;1.00
15257;DHT22;7731;50.720;6.912;2024-03-02T03:22:42;7.60;1.00
15257;DHT22;7731;50.720;6.912;2024-03-02T03:25:13;7.70;1.00
15257;DHT22;7731;50.720;6.912;2024-03-02T03:27:43;7.70;1.00
15257;DHT22;7731;50.720;6.912;2024-03-02T03:30:17;7.70;1.00
15257;DHT22;7731;50.720;6.912;2024-03-02T03:32:47;7.70;1.00
15257;DHT22;7731;50.720;6.912;2024-03-02T03:35:17;7.70;99.90
15257;DHT22;7731;50.720;6.912;2024-03-02T03:37:53;7.80;1.00
15257;DHT22;7731;50.720;6.912;2024-03-02T03:40:24;7.80;99.90
15257;DHT22;7731;50.720;6.912;2024-03-02T03:42:54;7.80;99.90
15257;DHT22;7731;50.720;6.912;2024-03-02T03:45:24;7.80;99.90
15257;DHT22;7731;50.720;6.912;2024-03-02T03:47:55;7.70;1.00
15257;DHT22;7731;50.720;6.912;2024-03-02T03:50:28;7.70;1.00
15257;DHT22;7731;50.720;6.912;2024-03-02T03:53:13;7.60;1.00
15257;DHT22;7731;50.720;6.912;2024-03-02T03:55:47;7.50;1.00
15257;DHT22;7731;50.720;6.912;2024-03-02T03:58:17;7.40;1.00
15257;DHT22;7731;50.720;6.912;2024-03-02T04:01:00;7.40;1.00
15257;DHT22;7731;50.720;6.912;2024-03-02T04:03:38;7.20;1.00
15257;DHT22;7731;50.720;6.912;2024-03-02T04:06:11;7.30;1.00
15257;DHT22;7731;50.720;6.912;2024-03-02T04:08:47;7.30;1.00
15257;DHT22;7731;50.720;6.912;2024-03-02T04:11:17;7.30;1.00
15257;DHT22;7731;50.720;6.912;2024-03-02T04:13:48;7.30;1.00
15257;DHT22;7731;50.720;6.912;2024-03-02T04:16:23;7.30;1.00
15257;DHT22;7731;50.720;6.912;2024-03-02T04:18:56;7.50;1.00
15257;DHT22;7731;50.720;6.912;2024-03-02T04:21:27;7.60;1.00
15257;DHT22;7731;50.720;6.912;2024-03-02T04:24:00;7.70;1.00
15257;DHT22;7731;50.720;6.912;2024-03-02T04:26:47;7.90;1.00
15257;DHT22;7731;50.720;6.912;2024-03-02T04:29:17;8.00;99.90
15257;DHT22;7731;50.720;6.912;2024-03-02T04:31:50;8.00;99.90
15257;DHT22;7731;50.720;6.912;2024-03-02T04:34:21;8.10;99.90
15257;DHT22;7731;50.720;6.912;2024-03-02T04:36:53;8.20;99.90
15257;DHT22;7731;50.720;6.912;2024-03-02T04:39:35;8.30;1.00
15257;DHT22;7731;50.720;6.912;2024-03-02T04:42:08;8.30;1.00
15257;DHT22;7731;50.720;6.912;2024-03-02T04:44:44;8.30;1.00
15257;DHT22;7731;50.720;6.912;2024-03-02T04:47:15;8.20;1.00
15257;DHT22;7731;50.720;6.912;2024-03-02T04:49:45;8.20;1.00
15257;DHT22;7731;50.720;6.912;2024-03-02T04:52:15;8.10;1.00
15257;DHT22;7731;50.720;6.912;2024-03-02T04:54:59;8.20;99.90
15257;DHT22;7731;50.720;6.912;2024-03-02T04:57:42;8.30;1.00
15257;DHT22;7731;50.720;6.912;2024-03-02T05:00:14;8.30;1.00
15257;DHT22;7731;50.720;6.912;2024-03-02T05:02:47;8.50;1.00
15257;DHT22;7731;50.720;6.912;2024-03-02T05:05:19;8.50;99.90
15257;DHT22;7731;50.720;6.912;2024-03-02T05:07:50;8.60;1.00
15257;DHT22;7731;50.720;6.912;2024-03-02T05:10:23;8.50;1.00
15257;DHT22;7731;50.720;6.912;2024-03-02T05:12:53;8.50;1.00
15257;DHT22;7731;50.720;6.912;2024-03-02T05:15:27;8.40;1.00
15257;DHT22;7731;50.720;6.912;2024-03-02T05:18:05;8.30;91.80
15257;DHT22;7731;50.720;6.912;2024-03-02T05:20:41;8.20;1.00
15257;DHT22;7731;50.720;6.912;2024-03-02T05:23:11;8.10;1.00
15257;DHT22;7731;50.720;6.912;2024-03-02T05:25:44;8.00;1.00
15257;DHT22;7731;50.720;6.912;2024-03-02T05:28:20;7.90;99.90
15257;DHT22;7731;50.720;6.912;2024-03-02T05:30:56;7.90;1.00
15257;DHT22;7731;50.720;6.912;2024-03-02T05:33:26;7.70;49.40
15257;DHT22;7731;50.720;6.912;2024-03-02T05:35:58;7.70;99.90
15257;DHT22;7731;50.720;6.912;2024-03-02T05:38:32;7.70;99.90
15257;DHT22;7731;50.720;6.912;2024-03-02T05:41:06;7.60;99.90
15257;DHT22;7731;50.720;6.912;2024-03-02T05:43:39;7.70;99.90
15257;DHT22;7731;50.720;6.912;2024-03-02T05:46:12;7.60;99.90
15257;DHT22;7731;50.720;6.912;2024-03-02T05:48:42;7.60;99.90
15257;DHT22;7731;50.720;6.912;2024-03-02T05:51:13;7.70;99.90
15257;DHT22;7731;50.720;6.912;2024-03-02T05:53:46;7.70;99.90
15257;DHT22;7731;50.720;6.912;2024-03-02T05:56:19;7.60;99.90
15257;DHT22;7731;50.720;6.912;2024-03-02T05:58:49;7.50;99.90
15257;DHT22;7731;50.720;6.912;2024-03-02T06:01:34;7.50;99.90
15257;DHT22;7731;50.720;6.912;2024-03-02T06:04:04;7.40;99.90
15257;DHT22;7731;50.720;6.912;2024-03-02T06:06:38;7.40;99.90
15257;DHT22;7731;50.720;6.912;2024-03-02T06:09:09;7.20;1.00
15257;DHT22;7731;50.720;6.912;2024-03-02T06:11:42;7.30;1.00
15257;DHT22;7731;50.720;6.912;2024-03-02T06:14:12;7.30;1.00
15257;DHT22;7731;50.720;6.912;2024-03-02T06:16:43;7.30;1.00
15257;DHT22;7731;50.720;6.912;2024-03-02T06:19:13;7.30;1.00
15257;DHT22;7731;50.720;6.912;2024-03-02T06:21:44;7.30;1.00
15257;DHT22;7731;50.720;6.912;2024-03-02T06:24:14;7.40;1.00
15257;DHT22;7731;50.720;6.912;2024-03-02T06:26:52;7.40;1.00
15257;DHT22;7731;50.720;6.912;2024-03-02T06:29:22;7.50;1.00
15257;DHT22;7731;50.720;6.912;2024-03-02T06:32:01;7.60;1.00
15257;DHT22;7731;50.720;6.912;2024-03-02T06:34:35;7.60;1.00
15257;DHT22;7731;50.720;6.912;2024-03-02T06:37:14;7.70;1.00
15257;DHT22;7731;50.720;6.912;2024-03-02T06:39:45;7.80;99.90
15257;DHT22;7731;50.720;6.912;2024-03-02T06:42:18;7.90;99.90
15257;DHT22;7731;50.720;6.912;2024-03-02T06:44:51;7.90;99.90
15257;DHT22;7731;50.720;6.912;2024-03-02T06:47:21;7.90;99.90
15257;DHT22;7731;50.720;6.912;2024-03-02T06:49:58;7.90;99.90
15257;DHT22;7731;50.720;6.912;2024-03-02T06:52:42;7.90;99.90
15257;DHT22;7731;50.720;6.912;2024-03-02T06:55:16;8.00;99.90
15257;DHT22;7731;50.720;6.912;2024-03-02T06:57:52;7.90;99.90
15257;DHT22;7731;50.720;6.912;2024-03-02T07:00:22;7.90;99.90
15257;DHT22;7731;50.720;6.912;2024-03-02T07:02:53;8.00;99.90
15257;DHT22;7731;50.720;6.912;2024-03-02T07:05:23;7.90;99.90
15257;DHT22;7731;50.720;6.912;2024-03-02T07:07:53;8.00;99.90
15257;DHT22;7731;50.720;6.912;2024-03-02T07:10:24;8.00;99.90
15257;DHT22;7731;50.720;6.912;2024-03-02T07:13:03;8.00;99.90
15257;DHT22;7731;50.720;6.912;2024-03-02T07:15:33;8.00;99.90
15257;DHT22;7731;50.720;6.912;2024-03-02T07:18:33;8.10;99.90
15257;DHT22;7731;50.720;6.912;2024-03-02T07:21:08;8.20;99.90
15257;DHT22;7731;50.720;6.912;2024-03-02T07:23:39;8.20;99.90
15257;DHT22;7731;50.720;6.912;2024-03-02T07:26:11;8.20;88.30
15257;DHT22;7731;50.720;6.912;2024-03-02T07:28:48;8.30;1.00
15257;DHT22;7731;50.720;6.912;2024-03-02T07:31:26;8.50;99.90
15257;DHT22;7731;50.720;6.912;2024-03-02T07:33:59;8.50;99.90
15257;DHT22;7731;50.720;6.912;2024-03-02T07:36:32;8.60;1.00
15257;DHT22;7731;50.720;6.912;2024-03-02T07:39:03;8.60;99.90
15257;DHT22;7731;50.720;6.912;2024-03-02T07:41:34;8.80;99.90
15257;DHT22;7731;50.720;6.912;2024-03-02T07:44:09;8.80;99.90
15257;DHT22;7731;50.720;6.912;2024-03-02T07:46:56;8.90;1.00
15257;DHT22;7731;50.720;6.912;2024-03-02T07:49:26;9.00;1.00
15257;DHT22;7731;50.720;6.912;2024-03-02T07:51:57;9.10;99.90
15257;DHT22;7731;50.720;6.912;2024-03-02T07:54:27;9.40;1.00
15257;DHT22;7731;50.720;6.912;2024-03-02T07:57:00;9.90;99.90
15257;DHT22;7731;50.720;6.912;2024-03-02T07:59:33;11.20;1.00
15257;DHT22;7731;50.720;6.912;2024-03-02T08:02:03;13.10;99.90
15257;DHT22;7731;50.720;6.912;2024-03-02T08:04:36;14.80;99.90
15257;DHT22;7731;50.720;6.912;2024-03-02T08:07:06;15.80;83.10
15257;DHT22;7731;50.720;6.912;2024-03-02T08:09:39;16.00;1.00
15257;DHT22;7731;50.720;6.912;2024-03-02T08:12:09;15.90;1.00
15257;DHT22;7731;50.720;6.912;2024-03-02T08:14:42;15.40;1.00
15257;DHT22;7731;50.720;6.912;2024-03-02T08:17:13;14.40;19.90
15257;DHT22;7731;50.720;6.912;2024-03-02T08:19:43;13.50;95.00
15257;DHT22;7731;50.720;6.912;2024-03-02T08:22:21;13.10;99.90
15257;DHT22;7731;50.720;6.912;2024-03-02T08:24:52;13.00;99.90
15257;DHT22;7731;50.720;6.912;2024-03-02T08:27:26;12.70;99.90
15257;DHT22;7731;50.720;6.912;2024-03-02T08:30:02;12.70;99.90
15257;DHT22;7731;50.720;6.912;2024-03-02T08:32:34;13.20;99.90
15257;DHT22;7731;50.720;6.912;2024-03-02T08:35:14;14.60;99.90
15257;DHT22;7731;50.720;6.912;2024-03-02T08:37:49;16.10;35.50
15257;DHT22;7731;50.720;6.912;2024-03-02T08:40:20;17.00;1.00
15257;DHT22;7731;50.720;6.912;2024-03-02T08:42:50;18.10;1.00
15257;DHT22;7731;50.720;6.912;2024-03-02T08:45:26;18.70;1.00
15257;DHT22;7731;50.720;6.912;2024-03-02T08:47:56;18.90;1.00
15257;DHT22;7731;50.720;6.912;2024-03-02T08:50:27;19.60;1.00
15257;DHT22;7731;50.720;6.912;2024-03-02T08:52:57;20.30;1.00
15257;DHT22;7731;50.720;6.912;2024-03-02T08:55:28;20.70;1.00
15257;DHT22;7731;50.720;6.912;2024-03-02T08:58:01;20.40;1.00
15257;DHT22;7731;50.720;6.912;2024-03-02T09:00:34;20.80;1.00
15257;DHT22;7731;50.720;6.912;2024-03-02T09:03:05;21.00;1.00
15257;DHT22;7731;50.720;6.912;2024-03-02T09:05:35;21.00;1.00
15257;DHT22;7731;50.720;6.912;2024-03-02T09:08:09;21.70;1.00
15257;DHT22;7731;50.720;6.912;2024-03-02T09:10:41;21.30;1.00
15257;DHT22;7731;50.720;6.912;2024-03-02T09:13:12;21.20;1.00
15257;DHT22;7731;50.720;6.912;2024-03-02T09:15:45;20.50;1.00
15257;DHT22;7731;50.720;6.912;2024-03-02T09:18:15;20.90;1.00
15257;DHT22;7731;50.720;6.912;2024-03-02T09:20:52;20.30;1.00
15257;DHT22;7731;50.720;6.912;2024-03-02T09:23:22;20.30;1.00
15257;DHT22;7731;50.720;6.912;2024-03-02T09:25:55;20.10;1.00
15257;DHT22;7731;50.720;6.912;2024-03-02T09:28:25;20.60;1.00
15257;DHT22;7731;50.720;6.912;2024-03-02T09:31:00;20.60;1.00
15257;DHT22;7731;50.720;6.912;2024-03-02T09:33:31;21.30;1.00
15257;DHT22;7731;50.720;6.912;2024-03-02T09:36:10;22.10;1.00
15257;DHT22;7731;50.720;6.912;2024-03-02T09:38:49;22.00;1.00
15257;DHT22;7731;50.720;6.912;2024-03-02T09:41:20;21.90;1.00
15257;DHT22;7731;50.720;6.912;2024-03-02T09:43:53;22.40;1.00
15257;DHT22;7731;50.720;6.912;2024-03-02T09:46:30;22.30;1.00
15257;DHT22;7731;50.720;6.912;2024-03-02T09:49:02;22.00;1.00
15257;DHT22;7731;50.720;6.912;2024-03-02T09:51:33;21.60;1.00
15257;DHT22;7731;50.720;6.912;2024-03-02T09:54:03;20.20;1.00
15257;DHT22;7731;50.720;6.912;2024-03-02T09:56:50;20.00;1.00
15257;DHT22;7731;50.720;6.912;2024-03-02T09:59:23;20.80;1.00
15257;DHT22;7731;50.720;6.912;2024-03-02T10:02:01;21.10;1.00
15257;DHT22;7731;50.720;6.912;2024-03-02T10:04:43;21.80;1.00
15257;DHT22;7731;50.720;6.912;2024-03-02T10:07:26;21.50;1.00
15257;DHT22;7731;50.720;6.912;2024-03-02T10:09:57;21.00;1.00
15257;DHT22;7731;50.720;6.912;2024-03-02T10:12:27;20.60;1.00
15257;DHT22;7731;50.720;6.912;2024-03-02T10:15:03;20.60;1.00
15257;DHT22;7731;50.720;6.912;2024-03-02T10:17:39;20.50;1.00
15257;DHT22;7731;50.720;6.912;2024-03-02T10:20:23;21.10;1.00
15257;DHT22;7731;50.720;6.912;2024-03-02T10:22:56;21.50;1.00
15257;DHT22;7731;50.720;6.912;2024-03-02T10:25:43;21.50;1.00
15257;DHT22;7731;50.720;6.912;2024-03-02T10:28:26;21.90;1.00
15257;DHT22;7731;50.720;6.912;2024-03-02T10:30:58;21.70;1.00
15257;DHT22;7731;50.720;6.912;2024-03-02T10:33:31;21.30;1.00
15257;DHT22;7731;50.720;6.912;2024-03-02T10:36:02;21.50;1.00
15257;DHT22;7731;50.720;6.912;2024-03-02T10:38:34;21.40;1.00
15257;DHT22;7731;50.720;6.912;2024-03-02T10:41:17;21.40;1.00
15257;DHT22;7731;50.720;6.912;2024-03-02T10:43:48;21.00;1.00
15257;DHT22;7731;50.720;6.912;2024-03-02T10:46:28;19.70;1.00
15257;DHT22;7731;50.720;6.912;2024-03-02T10:49:03;19.00;1.00
15257;DHT22;7731;50.720;6.912;2024-03-02T10:51:35;18.90;1.00
15257;DHT22;7731;50.720;6.912;2024-03-02T10:54:11;18.10;1.00
15257;DHT22;7731;50.720;6.912;2024-03-02T10:56:44;17.60;1.00
15257;DHT22;7731;50.720;6.912;2024-03-02T10:59:24;17.00;1.00
15257;DHT22;7731;50.720;6.912;2024-03-02T11:02:02;16.30;1.00
15257;DHT22;7731;50.720;6.912;2024-03-02T11:04:39;15.50;1.00
15257;DHT22;7731;50.720;6.912;2024-03-02T11:07:15;15.00;1.00
15257;DHT22;7731;50.720;6.912;2024-03-02T11:10:00;14.90;1.00
15257;DHT22;7731;50.720;6.912;2024-03-02T11:12:39;14.60;1.00
15257;DHT22;7731;50.720;6.912;2024-03-02T11:15:18;14.40;1.00
15257;DHT22;7731;50.720;6.912;2024-03-02T11:17:50;14.50;1.00
15257;DHT22;7731;50.720;6.912;2024-03-02T11:20:27;15.00;1.00
15257;DHT22;7731;50.720;6.912;2024-03-02T11:23:06;15.20;1.00
15257;DHT22;7731;50.720;6.912;2024-03-02T11:25:37;15.00;1.00
15257;DHT22;7731;50.720;6.912;2024-03-02T11:28:08;15.00;1.00
15257;DHT22;7731;50.720;6.912;2024-03-02T11:30:54;15.20;1.00
15257;DHT22;7731;50.720;6.912;2024-03-02T11:33:30;15.00;1.00
15257;DHT22;7731;50.720;6.912;2024-03-02T11:36:04;15.30;1.00
15257;DHT22;7731;50.720;6.912;2024-03-02T11:38:38;15.40;1.00
15257;DHT22;7731;50.720;6.912;2024-03-02T11:41:16;15.60;1.00
15257;DHT22;7731;50.720;6.912;2024-03-02T11:43:59;15.60;1.00
15257;DHT22;7731;50.720;6.912;2024-03-02T11:46:30;15.50;1.00
15257;DHT22;7731;50.720;6.912;2024-03-02T11:49:00;15.30;1.00
15257;DHT22;7731;50.720;6.912;2024-03-02T11:51:35;14.50;1.00
15257;DHT22;7731;50.720;6.912;2024-03-02T11:54:08;14.20;12.50
15257;DHT22;7731;50.720;6.912;2024-03-02T11:56:41;14.00;45.60
15257;DHT22;7731;50.720;6.912;2024-03-02T11:59:12;14.10;71.00
15257;DHT22;7731;50.720;6.912;2024-03-02T12:01:43;14.30;54.10
15257;DHT22;7731;50.720;6.912;2024-03-02T12:04:14;14.60;31.90
15257;DHT22;7731;50.720;6.912;2024-03-02T12:06:54;15.10;6.80
15257;DHT22;7731;50.720;6.912;2024-03-02T12:09:28;15.40;1.00
15257;DHT22;7731;50.720;6.912;2024-03-02T12:12:03;15.90;1.00
15257;DHT22;7731;50.720;6.912;2024-03-02T12:14:35;16.40;1.00
15257;DHT22;7731;50.720;6.912;2024-03-02T12:17:06;16.70;1.00
15257;DHT22;7731;50.720;6.912;2024-03-02T12:19:37;16.50;1.00
15257;DHT22;7731;50.720;6.912;2024-03-02T12:22:09;16.10;1.00
15257;DHT22;7731;50.720;6.912;2024-03-02T12:24:41;15.70;1.00
15257;DHT22;7731;50.720;6.912;2024-03-02T12:27:16;15.70;1.00
15257;DHT22;7731;50.720;6.912;2024-03-02T12:29:48;15.80;1.00
15257;DHT22;7731;50.720;6.912;2024-03-02T12:32:19;15.80;1.00
15257;DHT22;7731;50.720;6.912;2024-03-02T12:34:52;15.70;1.00
15257;DHT22;7731;50.720;6.912;2024-03-02T12:37:37;15.10;1.00
15257;DHT22;7731;50.720;6.912;2024-03-02T12:40:13;14.70;1.00
15257;DHT22;7731;50.720;6.912;2024-03-02T12:42:46;14.60;10.50
15257;DHT22;7731;50.720;6.912;2024-03-02T12:45:17;15.00;1.00
15257;DHT22;7731;50.720;6.912;2024-03-02T12:47:55;15.30;1.00
15257;DHT22;7731;50.720;6.912;2024-03-02T12:50:34;15.30;1.00
15257;DHT22;7731;50.720;6.912;2024-03-02T12:53:14;15.30;1.00
15257;DHT22;7731;50.720;6.912;2024-03-02T12:55:48;15.60;1.00
15257;DHT22;7731;50.720;6.912;2024-03-02T12:58:20;15.20;1.00
15257;DHT22;7731;50.720;6.912;2024-03-02T13:01:06;14.90;1.00
15257;DHT22;7731;50.720;6.912;2024-03-02T13:03:41;15.00;11.50
15257;DHT22;7731;50.720;6.912;2024-03-02T13:06:14;14.80;11.30
15257;DHT22;7731;50.720;6.912;2024-03-02T13:08:49;15.10;6.50
15257;DHT22;7731;50.720;6.912;2024-03-02T13:11:21;15.10;15.30
15257;DHT22;7731;50.720;6.912;2024-03-02T13:14:05;15.00;10.40
15257;DHT22;7731;50.720;6.912;2024-03-02T13:16:45;14.90;19.80
15257;DHT22;7731;50.720;6.912;2024-03-02T13:19:15;14.90;21.50
15257;DHT22;7731;50.720;6.912;2024-03-02T13:21:47;15.00;14.50
15257;DHT22;7731;50.720;6.912;2024-03-02T13:24:21;14.80;23.60
15257;DHT22;7731;50.720;6.912;2024-03-02T13:26:52;15.10;21.30
15257;DHT22;7731;50.720;6.912;2024-03-02T13:29:25;15.70;2.50
15257;DHT22;7731;50.720;6.912;2024-03-02T13:32:00;15.60;1.00
15257;DHT22;7731;50.720;6.912;2024-03-02T13:34:31;15.30;3.20
15257;DHT22;7731;50.720;6.912;2024-03-02T13:37:04;15.20;3.10
15257;DHT22;7731;50.720;6.912;2024-03-02T13:39:37;15.10;5.60
15257;DHT22;7731;50.720;6.912;2024-03-02T13:42:10;15.00;11.90
15257;DHT22;7731;50.720;6.912;2024-03-02T13:44:46;15.10;6.20
15257;DHT22;7731;50.720;6.912;2024-03-02T13:47:20;15.10;5.30
15257;DHT22;7731;50.720;6.912;2024-03-02T13:49:51;15.10;3.10
15257;DHT22;7731;50.720;6.912;2024-03-02T13:52:21;14.90;4.70
15257;DHT22;7731;50.720;6.912;2024-03-02T13:54:55;14.80;16.70
15257;DHT22;7731;50.720;6.912;2024-03-02T13:57:26;14.80;10.00
15257;DHT22;7731;50.720;6.912;2024-03-02T13:59:57;14.70;14.10
15257;DHT22;7731;50.720;6.912;2024-03-02T14:02:28;14.70;18.20
15257;DHT22;7731;50.720;6.912;2024-03-02T14:04:59;14.70;13.60
15257;DHT22;7731;50.720;6.912;2024-03-02T14:07:29;14.40;17.70
15257;DHT22;7731;50.720;6.912;2024-03-02T14:10:05;14.40;26.80
15257;DHT22;7731;50.720;6.912;2024-03-02T14:12:36;14.50;36.50
15257;DHT22;7731;50.720;6.912;2024-03-02T14:15:16;14.60;22.90
15257;DHT22;7731;50.720;6.912;2024-03-02T14:17:48;14.20;39.70
15257;DHT22;7731;50.720;6.912;2024-03-02T14:20:18;14.20;55.50
15257;DHT22;7731;50.720;6.912;2024-03-02T14:22:53;14.20;79.30
15257;DHT22;7731;50.720;6.912;2024-03-02T14:25:26;13.90;87.30
15257;DHT22;7731;50.720;6.912;2024-03-02T14:28:01;13.70;99.90
15257;DHT22;7731;50.720;6.912;2024-03-02T14:30:51;13.60;99.90
15257;DHT22;7731;50.720;6.912;2024-03-02T14:33:25;13.50;99.90
15257;DHT22;7731;50.720;6.912;2024-03-02T14:36:00;13.50;99.90
15257;DHT22;7731;50.720;6.912;2024-03-02T14:38:32;13.60;99.90
15257;DHT22;7731;50.720;6.912;2024-03-02T14:41:05;13.70;99.90
15257;DHT22;7731;50.720;6.912;2024-03-02T14:43:35;13.80;99.90
15257;DHT22;7731;50.720;6.912;2024-03-02T14:46:06;13.90;97.10
15257;DHT22;7731;50.720;6.912;2024-03-02T14:48:38;13.90;99.30
15257;DHT22;7731;50.720;6.912;2024-03-02T14:51:09;13.70;95.30
15257;DHT22;7731;50.720;6.912;2024-03-02T14:53:40;13.70;98.30
15257;DHT22;7731;50.720;6.912;2024-03-02T14:56:15;13.80;99.90
15257;DHT22;7731;50.720;6.912;2024-03-02T14:58:46;14.00;79.50
15257;DHT22;7731;50.720;6.912;2024-03-02T15:01:18;14.00;59.00
15257;DHT22;7731;50.720;6.912;2024-03-02T15:03:50;14.00;52.90
15257;DHT22;7731;50.720;6.912;2024-03-02T15:06:26;14.10;57.50
15257;DHT22;7731;50.720;6.912;2024-03-02T15:08:56;14.00;56.80
15257;DHT22;7731;50.720;6.912;2024-03-02T15:11:31;14.00;57.90
15257;DHT22;7731;50.720;6.912;2024-03-02T15:14:24;14.10;60.10
15257;DHT22;7731;50.720;6.912;2024-03-02T15:16:54;14.10;57.20
15257;DHT22;7731;50.720;6.912;2024-03-02T15:19:29;14.10;56.80
15257;DHT22;7731;50.720;6.912;2024-03-02T15:21:59;14.00;61.40
15257;DHT22;7731;50.720;6.912;2024-03-02T15:24:30;13.90;62.30
15257;DHT22;7731;50.720;6.912;2024-03-02T15:27:23;13.70;78.00
15257;DHT22;7731;50.720;6.912;2024-03-02T15:29:54;13.80;96.30
15257;DHT22;7731;50.720;6.912;2024-03-02T15:32:25;13.70;88.20
15257;DHT22;7731;50.720;6.912;2024-03-02T15:34:55;13.70;93.20
15257;DHT22;7731;50.720;6.912;2024-03-02T15:37:26;13.60;94.00
15257;DHT22;7731;50.720;6.912;2024-03-02T15:39:59;13.60;99.90
15257;DHT22;7731;50.720;6.912;2024-03-02T15:42:36;13.60;99.90
15257;DHT22;7731;50.720;6.912;2024-03-02T15:45:07;13.60;99.90
15257;DHT22;7731;50.720;6.912;2024-03-02T15:47:44;13.50;99.90
15257;DHT22;7731;50.720;6.912;2024-03-02T15:50:15;13.50;99.90
15257;DHT22;7731;50.720;6.912;2024-03-02T15:52:45;13.50;99.90
15257;DHT22;7731;50.720;6.912;2024-03-02T15:55:19;13.50;99.90
15257;DHT22;7731;50.720;6.912;2024-03-02T15:57:52;13.50;99.90
15257;DHT22;7731;50.720;6.912;2024-03-02T16:00:25;13.40;99.90
15257;DHT22;7731;50.720;6.912;2024-03-02T16:02:55;13.30;99.90
15257;DHT22;7731;50.720;6.912;2024-03-02T16:05:29;13.30;99.90
15257;DHT22;7731;50.720;6.912;2024-03-02T16:08:13;13.30;99.90
15257;DHT22;7731;50.720;6.912;2024-03-02T16:10:43;13.30;99.90
15257;DHT22;7731;50.720;6.912;2024-03-02T16:13:16;13.40;99.90
15257;DHT22;7731;50.720;6.912;2024-03-02T16:15:46;13.30;99.90
15257;DHT22;7731;50.720;6.912;2024-03-02T16:18:16;13.40;99.90
15257;DHT22;7731;50.720;6.912;2024-03-02T16:20:47;13.40;99.90
15257;DHT22;7731;50.720;6.912;2024-03-02T16:23:17;13.40;99.90
15257;DHT22;7731;50.720;6.912;2024-03-02T16:25:50;13.30;99.90
15257;DHT22;7731;50.720;6.912;2024-03-02T16:28:49;13.20;99.90
15257;DHT22;7731;50.720;6.912;2024-03-02T16:31:21;13.20;99.90
15257;DHT22;7731;50.720;6.912;2024-03-02T16:33:52;13.00;99.90
15257;DHT22;7731;50.720;6.912;2024-03-02T16:36:28;13.00;99.90
15257;DHT22;7731;50.720;6.912;2024-03-02T16:39:02;12.90;99.90
15257;DHT22;7731;50.720;6.912;2024-03-02T16:41:32;12.90;99.90
15257;DHT22;7731;50.720;6.912;2024-03-02T16:44:05;13.00;99.90